Address 0xc202a6f79ef9810657473d651ddda88eb68b8e8b

 
 
Txn Hash Method
Block
From
To
Value [Txn Fee]
0x20aa243c3871ed05475a30823c75f41ebcb2164b582ccbb578fb6c2408fc0a8aDeposit All240754882022-01-23 18:52:1312 hrs 52 mins ago0xc202a6f79ef9810657473d651ddda88eb68b8e8bOUT 0x6b6ca47520ddc9333b8bd09a1e64204648b632740 MATIC0.019554140793 92.275686816
0xf2e337262e92e2420e8e258593f8e324d16177a5eaaf4620514e34657d1c46d6Approve240754832022-01-23 18:52:0312 hrs 52 mins ago0xc202a6f79ef9810657473d651ddda88eb68b8e8bOUT 0x6ff62bfb8c12109e8000935a6de54dad83a4f39f0 MATIC0.004375114216 94.181646715
0xb38d657bfe252aa3ee20b52ae20fc3ec5364129b06bf81d7e04711d15a227553Add Liquidity240754752022-01-23 18:51:4712 hrs 52 mins ago0xc202a6f79ef9810657473d651ddda88eb68b8e8bOUT SushiSwap: SushiV2Router020 MATIC0.018486631499 99.588061795
0x7b76d9955e62ad3c0a42973eed76424012f0d1aadda30372d232aa19fd2bea0eApprove240754682022-01-23 18:51:3312 hrs 52 mins ago0xc202a6f79ef9810657473d651ddda88eb68b8e8bOUT Maker: Dai Stablecoin0 MATIC0.005254788653 100.913901019
0x7a0d02e08684b544ee33ef47a073b42d4e40a6e219b783a952f70b12ae91070fSwap Exact Token...240754482022-01-23 18:50:4912 hrs 53 mins ago0xc202a6f79ef9810657473d651ddda88eb68b8e8bOUT SushiSwap: SushiV2Router020 MATIC0.016541649948 100.104390773
0xf9ea5f8d9aa25467843a889985e5f8baea64a1af8d59bed66e9376a642db2cfcRemove Liquidity...240754332022-01-23 18:50:1912 hrs 54 mins ago0xc202a6f79ef9810657473d651ddda88eb68b8e8bOUT SushiSwap: SushiV2Router020 MATIC0.01762654437 96.242604961
0x440d3d8ef6993b4db149e6858fc31d312eef837e9b8459dbaeb3156cdd35be68Withdraw All240754142022-01-23 18:49:4112 hrs 54 mins ago0xc202a6f79ef9810657473d651ddda88eb68b8e8bOUT 0xf5881ff8ff609c1202e0c6481bc16b4273407a040 MATIC0.020366146754 93.33321153
0x84d5f7939e4c5d21f5054b58fa177020d46b17f9fd3e611ec8973a886d2deb7eDeposit All234599982022-01-08 0:44:1816 days 7 hrs ago0xc202a6f79ef9810657473d651ddda88eb68b8e8bOUT 0x584611da226b4d4c0c4d880e6f1e0c0e8522f3ae0 MATIC0.0053653830
0x8e061be5234300c638c1c4ecd0c26d77489250872f7dea8ebed06b8145e3edb0Add Liquidity ET...234599792022-01-08 0:43:0216 days 7 hrs ago0xc202a6f79ef9810657473d651ddda88eb68b8e8bOUT 0xc0788a3ad43d79aa53b09c2eacc313a787d1d60734.934105638848461 MATIC0.09893502540
0x008523f743c8b673f3bb53f2042bde2827fb5637428fdb175096e361df019c2dSwap Exact ETH F...234599702022-01-08 0:42:2616 days 7 hrs ago0xc202a6f79ef9810657473d651ddda88eb68b8e8bOUT 0xc0788a3ad43d79aa53b09c2eacc313a787d1d60735 MATIC0.0588222540
0x8824361bb3c118f62dfb901b988ef2e8972e77ecd8f52474d3ffc3686bf2428cDeposit All234599342022-01-08 0:41:0416 days 7 hrs ago0xc202a6f79ef9810657473d651ddda88eb68b8e8bOUT 0x1b90ec99d3b99086691ec3cbef1f1407e2753e380 MATIC0.0199705230
0x9a7cdcce7a87d670c4fa1301d7d4dd66252ac4c04c8368e2028df107f0591ed4Approve234599282022-01-08 0:40:5216 days 7 hrs ago0xc202a6f79ef9810657473d651ddda88eb68b8e8bOUT 0x71952d09aa093acccae0c1d5612d7fe26f20517f0 MATIC0.0013915830
0x45daf09f9b3d7cc928e6cba5361014a5a3db7f5e9d0055a76b2ed906fb62b1dfAdd Liquidity234599182022-01-08 0:40:3216 days 7 hrs ago0xc202a6f79ef9810657473d651ddda88eb68b8e8bOUT QuickSwap: Router0 MATIC0.09559134540
0x4b3b1ca7088ff91a089e6be70a678170a08741947e76883325821c6efb851b00Approve234599072022-01-08 0:40:1016 days 7 hrs ago0xc202a6f79ef9810657473d651ddda88eb68b8e8bOUT 0x1646c835d70f76d9030df6baaeec8f65c250353d0 MATIC0.02536056540
0xf5d555ebc648997faa3ecbf7e1d008efd5ded23ba7c1023a6bd7bad89fdd20e1Approve234599052022-01-08 0:40:0616 days 7 hrs ago0xc202a6f79ef9810657473d651ddda88eb68b8e8bOUT Qi DAO: miMATIC Token0 MATIC0.02515644540
0x5102242925b4723fa994c7254bd76f5b0a85f5e609200c6ffba6cd467ed9fcc1Swap Exact Token...234598972022-01-08 0:39:4616 days 7 hrs ago0xc202a6f79ef9810657473d651ddda88eb68b8e8bOUT QuickSwap: Router0 MATIC0.09938862540
0x7d8bb13994c857c4ad8bd4b03fd5e6cd9adaf88998cc2e82540b93339bccfdf7Swap Exact Token...234598872022-01-08 0:39:2616 days 7 hrs ago0xc202a6f79ef9810657473d651ddda88eb68b8e8bOUT QuickSwap: Router0 MATIC0.13084956540
0xcbcb4733f58fb1251a57c9382bf822944d9b2b3e1c88a830702ae9be37f93e63Deposit All234597222022-01-08 0:33:4816 days 7 hrs ago0xc202a6f79ef9810657473d651ddda88eb68b8e8bOUT 0x72b5cf05770c9a6a99fb8652825884ee36a4bfda0 MATIC0.0171311730
0x0808d2e55a304a3e45518b874ef2c1d402a552c8db601819278d18c2ee417661Deposit All234597142022-01-08 0:33:3216 days 7 hrs ago0xc202a6f79ef9810657473d651ddda88eb68b8e8bOUT 0x72b5cf05770c9a6a99fb8652825884ee36a4bfda0 MATIC0.0219540630
0x9aa50dfa536283684c0dfa92bc54799034e761be385a9356cdd92c910d9306a5Add Liquidity ET...234597072022-01-08 0:33:1416 days 7 hrs ago0xc202a6f79ef9810657473d651ddda88eb68b8e8bOUT QuickSwap: Router47.941350203413782 MATIC0.09922878540
0x5b2a5afee3e381f1f55225d870d3c8c7cb37d4e3718c55b7cdad061c796b5327Swap Exact Token...234596872022-01-08 0:32:3416 days 7 hrs ago0xc202a6f79ef9810657473d651ddda88eb68b8e8bOUT QuickSwap: Router0 MATIC0.089775540
0x871913d86488ef1b4cad1cece699727a4762732f0f01335063804507b03d3e32Remove Liquidity...234596292022-01-08 0:30:3416 days 7 hrs ago0xc202a6f79ef9810657473d651ddda88eb68b8e8bOUT SushiSwap: SushiV2Router020 MATIC0.11671374610
0xe680aee13c8dba53444296a4ac6030ae4d2807a9c2933bf0a35d6f7488da3efbRemove Liquidity...234315202022-01-07 6:32:5417 days 1 hr ago0xc202a6f79ef9810657473d651ddda88eb68b8e8bOUT SushiSwap: SushiV2Router020 MATIC0.0157828550
0xb08056f8b76a67f7d3517176adb972d242d0f9623ee5e8a9eb2028aae81a2581Remove Liquidity...234315202022-01-07 6:32:5417 days 1 hr ago0xc202a6f79ef9810657473d651ddda88eb68b8e8bOUT SushiSwap: SushiV2Router020 MATIC0.0022956880
0x604029c57f5ca916505cc66d16bb3dc1fa4e9aa448f6f3b6d2846cea9fa80e02Remove Liquidity...234315202022-01-07 6:32:5417 days 1 hr ago0xc202a6f79ef9810657473d651ddda88eb68b8e8bOUT SushiSwap: SushiV2Router020 MATIC0.0022956880
[ Download CSV Export 
Latest 8 internal transactions
Parent Txn Hash Block From To Value
0x871913d86488ef1b4cad1cece699727a4762732f0f01335063804507b03d3e32234596292022-01-08 0:30:3416 days 7 hrs ago SushiSwap: SushiV2Router020xc202a6f79ef9810657473d651ddda88eb68b8e8b122.074816677776521574 MATIC
0x88699e382ee8a871115e251fa605ecacb4682d2c993f695ae7a47bd7ba7fc7d6232787932022-01-02 23:21:4821 days 8 hrs ago SushiSwap: SushiV2Router020xc202a6f79ef9810657473d651ddda88eb68b8e8b975 wei
0x0870b91998856205d8630098a99cee14ac1f5c2a08d560333eccc4e109c1b757232787742022-01-02 23:21:0621 days 8 hrs ago QuickSwap: Router0xc202a6f79ef9810657473d651ddda88eb68b8e8b19.734962170486485705 MATIC
0x0369e4bb1ff53e30c5ab32c2303d65d07f9ca7efb697a60340d5e7cb4d543a5f232691192022-01-02 17:22:2421 days 14 hrs ago 0xc0788a3ad43d79aa53b09c2eacc313a787d1d6070xc202a6f79ef9810657473d651ddda88eb68b8e8b19.533304775833524746 MATIC
0x3425d1c21e841cbb75cf59419ac68be427e27b213be83624a6d159e2c562f734232639222022-01-02 14:10:5821 days 17 hrs ago QuickSwap: Router0xc202a6f79ef9810657473d651ddda88eb68b8e8b113.892773812659073278 MATIC
0x5038785ba957ea1453c61d6a01bcfeaaed2b8f68ad7fbcb4fe39340a1625083d232635322022-01-02 13:57:3321 days 17 hrs ago 0xc0788a3ad43d79aa53b09c2eacc313a787d1d6070xc202a6f79ef9810657473d651ddda88eb68b8e8b28.91068187998890323 MATIC
0x2a700dca15cd9c11c68711a45775f695ca3e62c5c4142e3e1eba555180b0c85d232635232022-01-02 13:57:1521 days 17 hrs ago 0xc0788a3ad43d79aa53b09c2eacc313a787d1d6070xc202a6f79ef9810657473d651ddda88eb68b8e8b28.967835848280669469 MATIC
0xe07ec27d0e65453ec523082538ebd8a50a79b84929814396ccb6dbcd2d24069d229927072021-12-26 17:25:4128 days 14 hrs ago 0xc0788a3ad43d79aa53b09c2eacc313a787d1d6070xc202a6f79ef9810657473d651ddda88eb68b8e8b16.549147618193967383 MATIC
[ Download CSV Export 
Loading

Contract Name:
0 MATIC

Compiler Version
0

Optimization Enabled:
0 MATIC

Other Settings:
-NA-
Block Transaction Gas Used Reward
Age Block Fee Address BC Fee Address Voting Power Jailed Incoming
Block Uncle Number Difficulty Gas Used Reward
Loading
Loading
Make sure to use the "Vote Down" button for any spammy posts, and the "Vote Up" for interesting conversations.